sensor_id;sensor_type;location;lat;lon;timestamp;pressure;altitude;pressure_sealevel;temperature;humidity
5350;BME280;2697;42.144;24.794;2023-02-28T00:00:50;155243.91;;;10.38;100.00
5350;BME280;2697;42.144;24.794;2023-02-28T00:03:15;155262.34;;;10.45;100.00
5350;BME280;2697;42.144;24.794;2023-02-28T00:05:40;155257.09;;;10.43;100.00
5350;BME280;2697;42.144;24.794;2023-02-28T00:08:07;155254.47;;;10.42;100.00
5350;BME280;2697;42.144;24.794;2023-02-28T00:10:32;155258.41;;;10.44;100.00
5350;BME280;2697;42.144;24.794;2023-02-28T00:13:03;155271.53;;;10.49;100.00
5350;BME280;2697;42.144;24.794;2023-02-28T00:15:30;155309.75;;;10.64;100.00
5350;BME280;2697;42.144;24.794;2023-02-28T00:17:56;155313.69;;;10.65;100.00
5350;BME280;2697;42.144;24.794;2023-02-28T00:20:22;155291.28;;;10.56;100.00
5350;BME280;2697;42.144;24.794;2023-02-28T00:22:50;155272.84;;;10.49;100.00
5350;BME280;2697;42.144;24.794;2023-02-28T00:25:19;155263.66;;;10.46;100.00
5350;BME280;2697;42.144;24.794;2023-02-28T00:27:45;155254.47;;;10.42;100.00
5350;BME280;2697;42.144;24.794;2023-02-28T00:30:13;155268.91;;;10.48;100.00
5350;BME280;2697;42.144;24.794;2023-02-28T00:32:39;155289.97;;;10.56;100.00
5350;BME280;2697;42.144;24.794;2023-02-28T00:35:06;155282.09;;;10.53;100.00
5350;BME280;2697;42.144;24.794;2023-02-28T00:37:31;155325.50;;;10.70;100.00
5350;BME280;2697;42.144;24.794;2023-02-28T00:39:57;155308.44;;;10.63;100.00
5350;BME280;2697;42.144;24.794;2023-02-28T00:42:23;155307.13;;;10.63;100.00
5350;BME280;2697;42.144;24.794;2023-02-28T00:44:49;155293.91;;;10.57;100.00
5350;BME280;2697;42.144;24.794;2023-02-28T00:47:14;155230.75;;;10.33;100.00
5350;BME280;2697;42.144;24.794;2023-02-28T00:49:39;155214.94;;;10.27;100.00
5350;BME280;2697;42.144;24.794;2023-02-28T00:52:05;155212.31;;;10.26;100.00
5350;BME280;2697;42.144;24.794;2023-02-28T00:54:30;155207.06;;;10.24;100.00
5350;BME280;2697;42.144;24.794;2023-02-28T00:56:55;155229.41;;;10.33;100.00
5350;BME280;2697;42.144;24.794;2023-02-28T00:59:21;155254.47;;;10.42;100.00
5350;BME280;2697;42.144;24.794;2023-02-28T01:01:47;155243.91;;;10.38;100.00
5350;BME280;2697;42.144;24.794;2023-02-28T01:04:13;155218.88;;;10.28;100.00
5350;BME280;2697;42.144;24.794;2023-02-28T01:06:39;155162.25;;;10.07;100.00
5350;BME280;2697;42.144;24.794;2023-02-28T01:09:06;155131.94;;;9.95;100.00
5350;BME280;2697;42.144;24.794;2023-02-28T01:11:32;155114.88;;;9.88;100.00
5350;BME280;2697;42.144;24.794;2023-02-28T01:13:58;155121.44;;;9.91;100.00
5350;BME280;2697;42.144;24.794;2023-02-28T01:16:24;155120.13;;;9.90;100.00
5350;BME280;2697;42.144;24.794;2023-02-28T01:18:49;155112.25;;;9.87;100.00
5350;BME280;2697;42.144;24.794;2023-02-28T01:21:17;155130.63;;;9.94;100.00
5350;BME280;2697;42.144;24.794;2023-02-28T01:23:43;155145.13;;;10.00;100.00
5350;BME280;2697;42.144;24.794;2023-02-28T01:26:16;155114.88;;;9.88;100.00
5350;BME280;2697;42.144;24.794;2023-02-28T01:28:42;155124.06;;;9.92;100.00
5350;BME280;2697;42.144;24.794;2023-02-28T01:31:09;155180.63;;;10.14;100.00
5350;BME280;2697;42.144;24.794;2023-02-28T01:33:35;155184.63;;;10.15;100.00
5350;BME280;2697;42.144;24.794;2023-02-28T01:36:06;155172.75;;;10.11;100.00
5350;BME280;2697;42.144;24.794;2023-02-28T01:38:32;155166.19;;;10.08;100.00
5350;BME280;2697;42.144;24.794;2023-02-28T01:40:57;155159.63;;;10.06;100.00
5350;BME280;2697;42.144;24.794;2023-02-28T01:43:26;155207.06;;;10.24;100.00
5350;BME280;2697;42.144;24.794;2023-02-28T01:45:53;155196.44;;;10.20;100.00
5350;BME280;2697;42.144;24.794;2023-02-28T01:48:24;155162.25;;;10.07;100.00
5350;BME280;2697;42.144;24.794;2023-02-28T01:50:51;155229.41;;;10.33;100.00
5350;BME280;2697;42.144;24.794;2023-02-28T01:53:21;155276.78;;;10.51;100.00
5350;BME280;2697;42.144;24.794;2023-02-28T01:55:50;155259.72;;;10.44;100.00
5350;BME280;2697;42.144;24.794;2023-02-28T01:58:17;155257.09;;;10.43;100.00
5350;BME280;2697;42.144;24.794;2023-02-28T02:00:43;155211.00;;;10.25;100.00
5350;BME280;2697;42.144;24.794;2023-02-28T02:03:12;155241.25;;;10.37;100.00
5350;BME280;2697;42.144;24.794;2023-02-28T02:05:39;155283.41;;;10.53;100.00
5350;BME280;2697;42.144;24.794;2023-02-28T02:08:08;155299.19;;;10.60;100.00
5350;BME280;2697;42.144;24.794;2023-02-28T02:10:41;155255.78;;;10.43;100.00
5350;BME280;2697;42.144;24.794;2023-02-28T02:31:20;34302.97;;;9.85;100.00
5350;BME280;2697;42.144;24.794;2023-02-28T02:34:44;27200.94;;;9.66;100.00
5350;BME280;2697;42.144;24.794;2023-02-28T02:37:01;24830.69;;;9.43;100.00
5350;BME280;2697;42.144;24.794;2023-02-28T02:39:44;24151.88;;;9.32;100.00
5350;BME280;2697;42.144;24.794;2023-02-28T02:42:21;23136.03;;;9.19;100.00
5350;BME280;2697;42.144;24.794;2023-02-28T02:45:00;23806.47;;;9.11;100.00
5350;BME280;2697;42.144;24.794;2023-02-28T02:47:29;22120.91;;;9.05;100.00
5350;BME280;2697;42.144;24.794;2023-02-28T02:49:58;20100.34;;;9.01;100.00
5350;BME280;2697;42.144;24.794;2023-02-28T02:52:34;18417.19;;;8.96;100.00
5350;BME280;2697;42.144;24.794;2023-02-28T02:55:03;18078.75;;;8.89;100.00
5350;BME280;2697;42.144;24.794;2023-02-28T02:57:35;15726.31;;;8.88;100.00
5350;BME280;2697;42.144;24.794;2023-02-28T03:00:03;14382.16;;;8.85;100.00
5350;BME280;2697;42.144;24.794;2023-02-28T03:02:31;12032.91;;;8.89;100.00
5350;BME280;2697;42.144;24.794;2023-02-28T03:05:02;9685.09;;;8.93;100.00
5350;BME280;2697;42.144;24.794;2023-02-28T03:07:29;7337.84;;;8.94;100.00
5350;BME280;2697;42.144;24.794;2023-02-28T03:09:56;5327.50;;;9.00;100.00
5350;BME280;2697;42.144;24.794;2023-02-28T03:12:32;2982.69;;;9.02;100.00
5350;BME280;2697;42.144;24.794;2023-02-28T03:15:10;2311.22;;;8.72;100.00
5350;BME280;2697;42.144;24.794;2023-02-28T03:17:47;2648.03;;;9.06;100.00
5350;BME280;2697;42.144;24.794;2023-02-28T03:25:56;974.31;;;9.18;100.00
5350;BME280;2697;42.144;24.794;2023-02-28T03:29:03;304.97;;;9.28;100.00
5350;BME280;2697;42.144;24.794;2023-02-28T03:31:35;305.19;;;9.37;100.00
5350;BME280;2697;42.144;24.794;2023-02-28T03:34:24;305.16;;;9.35;100.00
5350;BME280;2697;42.144;24.794;2023-02-28T03:37:02;640.25;;;9.42;100.00
5350;BME280;2697;42.144;24.794;2023-02-28T03:39:39;305.28;;;9.40;100.00
5350;BME280;2697;42.144;24.794;2023-02-28T03:42:11;-29.59;;;9.41;100.00
5350;BME280;2697;42.144;24.794;2023-02-28T03:44:52;-1034.03;;;9.39;100.00
5350;BME280;2697;42.144;24.794;2023-02-28T03:47:25;-2038.25;;;9.45;100.00
5350;BME280;2697;42.144;24.794;2023-02-28T03:50:02;-1703.53;;;9.43;100.00
5350;BME280;2697;42.144;24.794;2023-02-28T03:52:34;-2038.44;;;9.57;100.00
5350;BME280;2697;42.144;24.794;2023-02-28T03:55:03;-2707.75;;;9.51;100.00
5350;BME280;2697;42.144;24.794;2023-02-28T03:57:47;-4046.22;;;9.51;100.00
5350;BME280;2697;42.144;24.794;2023-02-28T04:00:21;-4046.66;;;9.60;100.00
5350;BME280;2697;42.144;24.794;2023-02-28T04:02:50;-3042.94;;;9.68;100.00
5350;BME280;2697;42.144;24.794;2023-02-28T04:05:19;-2038.66;;;9.74;100.00
5350;BME280;2697;42.144;24.794;2023-02-28T04:07:44;-29.00;;;9.72;100.00
5350;BME280;2697;42.144;24.794;2023-02-28T04:10:11;2318.06;;;9.92;100.00
5350;BME280;2697;42.144;24.794;2023-02-28T04:12:37;3658.16;;;9.73;100.00
5350;BME280;2697;42.144;24.794;2023-02-28T04:15:03;4329.63;;;9.81;100.00
5350;BME280;2697;42.144;24.794;2023-02-28T04:17:28;6341.09;;;9.66;100.00
5350;BME280;2697;42.144;24.794;2023-02-28T04:19:54;7684.91;;;9.76;100.00
5350;BME280;2697;42.144;24.794;2023-02-28T04:22:21;8355.63;;;9.71;100.00
5350;BME280;2697;42.144;24.794;2023-02-28T04:24:47;9699.41;;;9.74;100.00
5350;BME280;2697;42.144;24.794;2023-02-28T04:27:12;12726.41;;;9.87;100.00
5350;BME280;2697;42.144;24.794;2023-02-28T04:29:38;14401.91;;;9.63;100.00
5350;BME280;2697;42.144;24.794;2023-02-28T04:32:03;11043.16;;;9.74;100.00
5350;BME280;2697;42.144;24.794;2023-02-28T04:34:31;14743.56;;;9.84;100.00
5350;BME280;2697;42.144;24.794;2023-02-28T04:36:57;14403.84;;;9.71;100.00
5350;BME280;2697;42.144;24.794;2023-02-28T04:39:23;16084.44;;;9.67;100.00
5350;BME280;2697;42.144;24.794;2023-02-28T04:41:49;14063.78;;;9.56;100.00
5350;BME280;2697;42.144;24.794;2023-02-28T04:44:15;14066.31;;;9.66;100.00
5350;BME280;2697;42.144;24.794;2023-02-28T04:46:41;17426.25;;;9.54;100.00
5350;BME280;2697;42.144;24.794;2023-02-28T04:49:08;15074.56;;;9.64;100.00
5350;BME280;2697;42.144;24.794;2023-02-28T04:51:34;14061.16;;;9.45;100.00
5350;BME280;2697;42.144;24.794;2023-02-28T04:54:00;12384.03;;;9.59;100.00
5350;BME280;2697;42.144;24.794;2023-02-28T04:56:25;15410.59;;;9.63;100.00
5350;BME280;2697;42.144;24.794;2023-02-28T04:58:51;16418.22;;;9.58;100.00
5350;BME280;2697;42.144;24.794;2023-02-28T05:03:47;15743.84;;;9.52;100.00
5350;BME280;2697;42.144;24.794;2023-02-28T05:06:13;13050.50;;;9.34;100.00
5350;BME280;2697;42.144;24.794;2023-02-28T05:08:39;12716.28;;;9.42;100.00
5350;BME280;2697;42.144;24.794;2023-02-28T05:11:07;11372.00;;;9.39;100.00
5350;BME280;2697;42.144;24.794;2023-02-28T05:13:36;14731.28;;;9.37;100.00
5350;BME280;2697;42.144;24.794;2023-02-28T05:16:01;14398.56;;;9.50;100.00
5350;BME280;2697;42.144;24.794;2023-02-28T05:18:26;15402.34;;;9.32;100.00
5350;BME280;2697;42.144;24.794;2023-02-28T05:20:52;16412.38;;;9.37;100.00
5350;BME280;2697;42.144;24.794;2023-02-28T05:23:18;15066.63;;;9.34;100.00
5350;BME280;2697;42.144;24.794;2023-02-28T05:25:44;16074.44;;;9.31;100.00
5350;BME280;2697;42.144;24.794;2023-02-28T05:28:10;16074.72;;;9.32;100.00
5350;BME280;2697;42.144;24.794;2023-02-28T05:30:35;15735.44;;;9.21;100.00
5350;BME280;2697;42.144;24.794;2023-02-28T05:33:00;14725.09;;;9.13;100.00
5350;BME280;2697;42.144;24.794;2023-02-28T05:35:26;15062.19;;;9.17;100.00
5350;BME280;2697;42.144;24.794;2023-02-28T05:37:52;16071.84;;;9.22;100.00
5350;BME280;2697;42.144;24.794;2023-02-28T05:40:18;19774.94;;;9.33;100.00
5350;BME280;2697;42.144;24.794;2023-02-28T05:42:45;18762.81;;;9.25;100.00
5350;BME280;2697;42.144;24.794;2023-02-28T05:45:11;19100.56;;;9.29;100.00
5350;BME280;2697;42.144;24.794;2023-02-28T05:47:36;22135.59;;;9.44;100.00
5350;BME280;2697;42.144;24.794;2023-02-28T05:50:02;23145.94;;;9.43;100.00
5350;BME280;2697;42.144;24.794;2023-02-28T05:52:28;24157.13;;;9.45;100.00
5350;BME280;2697;42.144;24.794;2023-02-28T05:54:55;27189.66;;;9.41;100.00
5350;BME280;2697;42.144;24.794;2023-02-28T05:57:20;27529.25;;;9.47;100.00
5350;BME280;2697;42.144;24.794;2023-02-28T05:59:46;31590.91;;;9.69;100.00
5350;BME280;2697;42.144;24.794;2023-02-28T06:02:13;32250.06;;;9.39;100.00
5350;BME280;2697;42.144;24.794;2023-02-28T06:04:39;28875.09;;;9.39;100.00
5350;BME280;2697;42.144;24.794;2023-02-28T06:07:06;29556.50;;;9.53;100.00
5350;BME280;2697;42.144;24.794;2023-02-28T06:09:31;32254.50;;;9.48;100.00
5350;BME280;2697;42.144;24.794;2023-02-28T06:11:58;30235.44;;;9.60;100.00
5350;BME280;2697;42.144;24.794;2023-02-28T06:14:23;36326.31;;;9.76;100.00
5350;BME280;2697;42.144;24.794;2023-02-28T06:16:49;38355.34;;;9.75;100.00
5350;BME280;2697;42.144;24.794;2023-02-28T06:19:14;41399.69;;;9.72;100.00
5350;BME280;2697;42.144;24.794;2023-02-28T06:21:41;38017.00;;;9.75;100.00
5350;BME280;2697;42.144;24.794;2023-02-28T06:24:06;42739.78;;;9.52;100.00
5350;BME280;2697;42.144;24.794;2023-02-28T06:26:32;44785.34;;;9.69;100.00
5350;BME280;2697;42.144;24.794;2023-02-28T06:28:58;40372.59;;;9.55;100.00
5350;BME280;2697;42.144;24.794;2023-02-28T06:31:23;36305.75;;;9.42;100.00
5350;BME280;2697;42.144;24.794;2023-02-28T06:33:51;40033.84;;;9.55;100.00
5350;BME280;2697;42.144;24.794;2023-02-28T06:36:17;42744.16;;;9.58;100.00
5350;BME280;2697;42.144;24.794;2023-02-28T06:38:43;46816.00;;;9.65;100.00
5350;BME280;2697;42.144;24.794;2023-02-28T06:41:10;46136.00;;;9.63;100.00
5350;BME280;2697;42.144;24.794;2023-02-28T06:43:41;49871.50;;;9.69;100.00
5350;BME280;2697;42.144;24.794;2023-02-28T06:46:10;44432.06;;;9.50;100.00
5350;BME280;2697;42.144;24.794;2023-02-28T06:48:36;43093.84;;;9.73;100.00
5350;BME280;2697;42.144;24.794;2023-02-28T06:51:06;54632.31;;;9.77;100.00
5350;BME280;2697;42.144;24.794;2023-02-28T06:53:32;58038.38;;;9.84;100.00
5350;BME280;2697;42.144;24.794;2023-02-28T06:55:58;64503.47;;;9.82;100.00
5350;BME280;2697;42.144;24.794;2023-02-28T06:58:23;64505.66;;;9.84;100.00
5350;BME280;2697;42.144;24.794;2023-02-28T07:00:51;66208.22;;;9.83;100.00
5350;BME280;2697;42.144;24.794;2023-02-28T07:03:17;59031.75;;;9.57;100.00
5350;BME280;2697;42.144;24.794;2023-02-28T07:05:44;60757.59;;;9.82;100.00
5350;BME280;2697;42.144;24.794;2023-02-28T07:08:10;54628.56;;;9.73;100.00
5350;BME280;2697;42.144;24.794;2023-02-28T07:10:39;56686.38;;;9.93;100.00
5350;BME280;2697;42.144;24.794;2023-02-28T07:13:06;57007.06;;;9.73;100.00
5350;BME280;2697;42.144;24.794;2023-02-28T07:15:31;62122.81;;;9.85;100.00
5350;BME280;2697;42.144;24.794;2023-02-28T07:17:57;67920.06;;;9.90;100.00
5350;BME280;2697;42.144;24.794;2023-02-28T07:20:23;65543.34;;;9.98;100.00
5350;BME280;2697;42.144;24.794;2023-02-28T07:22:49;66880.78;;;9.75;100.00
5350;BME280;2697;42.144;24.794;2023-02-28T07:25:25;61082.88;;;9.67;100.00
5350;BME280;2697;42.144;24.794;2023-02-28T07:27:50;65544.47;;;9.99;100.00
5350;BME280;2697;42.144;24.794;2023-02-28T07:30:16;61768.75;;;9.72;100.00
5350;BME280;2697;42.144;24.794;2023-02-28T07:32:42;64160.69;;;9.80;100.00
5350;BME280;2697;42.144;24.794;2023-02-28T07:35:07;61754.06;;;9.58;100.00
5350;BME280;2697;42.144;24.794;2023-02-28T07:37:33;57678.22;;;9.63;100.00
5350;BME280;2697;42.144;24.794;2023-02-28T07:40:06;58702.72;;;9.68;100.00
5350;BME280;2697;42.144;24.794;2023-02-28T07:42:37;56307.59;;;9.52;100.00
5350;BME280;2697;42.144;24.794;2023-02-28T07:45:03;52909.94;;;9.50;100.00
5350;BME280;2697;42.144;24.794;2023-02-28T07:47:29;49862.59;;;9.58;100.00
5350;BME280;2697;42.144;24.794;2023-02-28T07:49:55;49864.72;;;9.61;100.00
5350;BME280;2697;42.144;24.794;2023-02-28T07:52:21;53613.09;;;9.77;100.00
5350;BME280;2697;42.144;24.794;2023-02-28T07:54:46;65530.56;;;9.87;100.00
5350;BME280;2697;42.144;24.794;2023-02-28T07:57:11;66218.31;;;9.92;100.00
5350;BME280;2697;42.144;24.794;2023-02-28T07:59:37;66530.97;;;9.67;100.00
5350;BME280;2697;42.144;24.794;2023-02-28T08:02:02;52580.31;;;9.61;100.00
5350;BME280;2697;42.144;24.794;2023-02-28T08:04:27;52235.03;;;9.55;100.00
5350;BME280;2697;42.144;24.794;2023-02-28T08:06:54;41726.56;;;9.55;100.00
5350;BME280;2697;42.144;24.794;2023-02-28T08:09:21;44451.78;;;9.77;100.00
5350;BME280;2697;42.144;24.794;2023-02-28T08:11:46;53262.56;;;9.65;100.00
5350;BME280;2697;42.144;24.794;2023-02-28T08:14:12;54642.50;;;9.88;100.00
5350;BME280;2697;42.144;24.794;2023-02-28T08:16:37;53582.09;;;9.42;100.00
5350;BME280;2697;42.144;24.794;2023-02-28T08:19:03;50226.25;;;9.87;100.00
5350;BME280;2697;42.144;24.794;2023-02-28T08:21:29;60772.56;;;9.96;100.00
5350;BME280;2697;42.144;24.794;2023-02-28T08:23:54;63483.28;;;9.84;100.00
5350;BME280;2697;42.144;24.794;2023-02-28T08:26:21;59399.56;;;9.85;100.00
5350;BME280;2697;42.144;24.794;2023-02-28T08:28:47;69981.28;;;10.03;100.00
5350;BME280;2697;42.144;24.794;2023-02-28T08:31:14;68599.75;;;9.88;100.00
5350;BME280;2697;42.144;24.794;2023-02-28T08:33:40;58355.22;;;9.60;100.00
5350;BME280;2697;42.144;24.794;2023-02-28T08:36:07;53273.44;;;9.77;100.00
5350;BME280;2697;42.144;24.794;2023-02-28T08:38:35;67259.25;;;10.09;100.00
5350;BME280;2697;42.144;24.794;2023-02-28T08:41:04;71020.78;;;10.16;100.00
5350;BME280;2697;42.144;24.794;2023-02-28T08:43:32;78863.13;;;10.03;100.00
5350;BME280;2697;42.144;24.794;2023-02-28T08:45:58;78865.78;;;10.05;100.00
5350;BME280;2697;42.144;24.794;2023-02-28T08:48:25;69637.13;;;10.00;100.00
5350;BME280;2697;42.144;24.794;2023-02-28T08:51:07;91267.69;;;10.51;100.00
5350;BME280;2697;42.144;24.794;2023-02-28T08:53:35;113670.88;;;10.65;100.00
5350;BME280;2697;42.144;24.794;2023-02-28T08:56:08;110543.84;;;10.54;100.00
5350;BME280;2697;42.144;24.794;2023-02-28T08:58:34;103570.56;;;10.08;100.00
5350;BME280;2697;42.144;24.794;2023-02-28T09:01:00;106387.47;;;10.43;100.00
5350;BME280;2697;42.144;24.794;2023-02-28T09:03:26;115984.50;;;10.11;100.00
5350;BME280;2697;42.144;24.794;2023-02-28T09:05:56;91184.31;;;9.96;100.00
5350;BME280;2697;42.144;24.794;2023-02-28T09:08:23;97435.63;;;10.41;100.00
5350;BME280;2697;42.144;24.794;2023-02-28T09:10:49;112949.75;;;10.49;100.00
5350;BME280;2697;42.144;24.794;2023-02-28T09:13:15;133020.41;;;10.50;100.00
5350;BME280;2697;42.144;24.794;2023-02-28T09:15:40;112912.50;;;10.29;100.00
5350;BME280;2697;42.144;24.794;2023-02-28T09:18:05;110469.91;;;10.14;100.00
5350;BME280;2697;42.144;24.794;2023-02-28T09:20:31;109100.47;;;10.19;100.00
5350;BME280;2697;42.144;24.794;2023-02-28T09:22:56;94996.06;;;10.20;100.00
5350;BME280;2697;42.144;24.794;2023-02-28T09:25:21;110493.34;;;10.26;100.00
5350;BME280;2697;42.144;24.794;2023-02-28T09:27:47;119146.84;;;10.39;100.00
5350;BME280;2697;42.144;24.794;2023-02-28T09:30:12;106356.84;;;10.26;100.00
5350;BME280;2697;42.144;24.794;2023-02-28T09:32:38;105300.41;;;10.13;100.00
5350;BME280;2697;42.144;24.794;2023-02-28T09:35:04;92241.56;;;10.15;100.00
5350;BME280;2697;42.144;24.794;2023-02-28T09:37:30;117453.97;;;10.56;100.00
5350;BME280;2697;42.144;24.794;2023-02-28T09:39:56;108444.28;;;10.37;100.00
5350;BME280;2697;42.144;24.794;2023-02-28T09:42:27;111903.13;;;10.43;100.00
5350;BME280;2697;42.144;24.794;2023-02-28T09:44:55;109131.91;;;10.36;100.00
5350;BME280;2697;42.144;24.794;2023-02-28T09:47:34;110483.00;;;10.21;100.00
5350;BME280;2697;42.144;24.794;2023-02-28T09:50:33;114602.06;;;10.10;100.00
5350;BME280;2697;42.144;24.794;2023-02-28T09:53:03;93234.16;;;9.91;100.00
5350;BME280;2697;42.144;24.794;2023-02-28T09:55:42;77148.97;;;9.99;100.00
5350;BME280;2697;42.144;24.794;2023-02-28T09:58:26;65838.38;;;9.57;100.00
5350;BME280;2697;42.144;24.794;2023-02-28T10:06:46;68275.50;;;10.03;100.00
5350;BME280;2697;42.144;24.794;2023-02-28T10:09:24;72357.13;;;9.91;100.00
5350;BME280;2697;42.144;24.794;2023-02-28T10:11:52;73422.44;;;10.25;100.00
5350;BME280;2697;42.144;24.794;2023-02-28T10:14:22;87433.00;;;10.10;100.00
5350;BME280;2697;42.144;24.794;2023-02-28T10:24:33;111553.38;;;10.40;100.00
5350;BME280;2697;42.144;24.794;2023-02-28T10:27:12;111520.34;;;10.22;100.00
5350;BME280;2697;42.144;24.794;2023-02-28T10:29:40;100163.09;;;10.27;100.00
5350;BME280;2697;42.144;24.794;2023-02-28T10:32:11;85335.78;;;9.81;100.00
5350;BME280;2697;42.144;24.794;2023-02-28T10:34:39;69623.56;;;9.88;100.00
5350;BME280;2697;42.144;24.794;2023-02-28T10:37:05;70632.69;;;9.76;100.00
5350;BME280;2697;42.144;24.794;2023-02-28T10:42:03;74772.75;;;10.12;100.00
5350;BME280;2697;42.144;24.794;2023-02-28T10:44:29;80557.06;;;9.90;100.00
5350;BME280;2697;42.144;24.794;2023-02-28T10:46:55;82278.88;;;9.98;100.00
5350;BME280;2697;42.144;24.794;2023-02-28T10:49:26;81266.69;;;10.09;100.00
5350;BME280;2697;42.144;24.794;2023-02-28T10:51:58;74762.63;;;10.04;100.00
5350;BME280;2697;42.144;24.794;2023-02-28T10:54:36;95700.88;;;10.31;100.00
5350;BME280;2697;42.144;24.794;2023-02-28T10:59:33;87067.41;;;9.94;100.00
5350;BME280;2697;42.144;24.794;2023-02-28T11:01:58;79889.22;;;10.03;100.00
5350;BME280;2697;42.144;24.794;2023-02-28T11:07:04;74409.66;;;9.94;100.00
5350;BME280;2697;42.144;24.794;2023-02-28T11:09:34;62447.41;;;9.70;100.00
5350;BME280;2697;42.144;24.794;2023-02-28T11:12:02;55964.97;;;9.49;100.00
5350;BME280;2697;42.144;24.794;2023-02-28T11:14:37;48842.03;;;9.55;100.00
5350;BME280;2697;42.144;24.794;2023-02-28T11:17:15;40361.22;;;9.38;100.00
5350;BME280;2697;42.144;24.794;2023-02-28T11:19:46;33267.13;;;9.47;100.00
5350;BME280;2697;42.144;24.794;2023-02-28T11:22:18;34274.09;;;9.35;100.00
5350;BME280;2697;42.144;24.794;2023-02-28T11:24:48;27184.94;;;9.31;100.00
5350;BME280;2697;42.144;24.794;2023-02-28T11:27:39;18763.97;;;9.28;100.00
5350;BME280;2697;42.144;24.794;2023-02-28T11:33:01;14402.56;;;9.66;100.00
5350;BME280;2697;42.144;24.794;2023-02-28T11:35:41;14732.88;;;9.43;100.00
5350;BME280;2697;42.144;24.794;2023-02-28T11:38:11;10027.88;;;9.33;100.00
5350;BME280;2697;42.144;24.794;2023-02-28T11:40:51;9018.81;;;9.21;100.00
5350;BME280;2697;42.144;24.794;2023-02-28T11:50:08;8013.25;;;9.27;100.00
5350;BME280;2697;42.144;24.794;2023-02-28T12:00:57;7344.75;;;9.44;100.00
5350;BME280;2697;42.144;24.794;2023-02-28T12:03:56;10364.34;;;9.37;100.00
5350;BME280;2697;42.144;24.794;2023-02-28T12:06:18;4994.88;;;9.24;100.00
5350;BME280;2697;42.144;24.794;2023-02-28T12:08:53;3319.34;;;9.26;100.00
5350;BME280;2697;42.144;24.794;2023-02-28T12:14:36;4324.81;;;9.27;100.00
5350;BME280;2697;42.144;24.794;2023-02-28T12:23:15;2984.97;;;9.36;100.00
5350;BME280;2697;42.144;24.794;2023-02-28T12:28:26;5330.25;;;9.26;100.00
5350;BME280;2697;42.144;24.794;2023-02-28T12:31:18;3991.28;;;9.47;100.00
5350;BME280;2697;42.144;24.794;2023-02-28T12:34:20;7012.25;;;9.66;100.00
5350;BME280;2697;42.144;24.794;2023-02-28T12:36:49;8351.06;;;9.41;100.00
5350;BME280;2697;42.144;24.794;2023-02-28T12:41:54;11040.53;;;9.61;100.00
5350;BME280;2697;42.144;24.794;2023-02-28T12:44:28;8687.47;;;9.47;100.00
5350;BME280;2697;42.144;24.794;2023-02-28T12:47:03;7346.31;;;9.55;100.00
5350;BME280;2697;42.144;24.794;2023-02-28T12:52:00;7682.50;;;9.59;100.00
5350;BME280;2697;42.144;24.794;2023-02-28T12:57:38;5331.72;;;9.39;100.00
5350;BME280;2697;42.144;24.794;2023-02-28T13:00:18;-29.91;;;9.24;100.00
5350;BME280;2697;42.144;24.794;2023-02-28T13:10:22;-9721.53;;;8.93;100.00
5350;BME280;2697;42.144;24.794;2023-02-28T13:12:52;-11727.78;;;9.18;100.00
5350;BME280;2697;42.144;24.794;2023-02-28T13:15:24;-12724.72;;;8.96;100.00
5350;BME280;2697;42.144;24.794;2023-02-28T13:17:52;-15391.84;;;8.96;100.00
5350;BME280;2697;42.144;24.794;2023-02-28T13:20:20;-18386.44;;;8.82;100.00
5350;BME280;2697;42.144;24.794;2023-02-28T13:22:49;-19388.59;;;8.88;100.00
5350;BME280;2697;42.144;24.794;2023-02-28T13:27:47;-19386.50;;;8.80;100.00
5350;BME280;2697;42.144;24.794;2023-02-28T13:35:45;-19385.44;;;8.77;100.00
5350;BME280;2697;42.144;24.794;2023-02-28T13:38:31;-19386.19;;;8.79;100.00
5350;BME280;2697;42.144;24.794;2023-02-28T13:51:49;-19388.00;;;8.85;100.00
5350;BME280;2697;42.144;24.794;2023-02-28T13:54:21;-19387.84;;;8.85;100.00
5350;BME280;2697;42.144;24.794;2023-02-28T14:05:17;-19386.19;;;8.79;100.00
5350;BME280;2697;42.144;24.794;2023-02-28T14:07:49;-19386.78;;;8.81;100.00
5350;BME280;2697;42.144;24.794;2023-02-28T14:10:33;-19386.78;;;8.81;100.00
5350;BME280;2697;42.144;24.794;2023-02-28T14:13:03;-19388.59;;;8.88;100.00
5350;BME280;2697;42.144;24.794;2023-02-28T14:15:41;-19389.94;;;8.92;100.00
5350;BME280;2697;42.144;24.794;2023-02-28T14:18:39;-19390.56;;;8.94;100.00
5350;BME280;2697;42.144;24.794;2023-02-28T14:21:26;-19388.59;;;8.88;100.00
5350;BME280;2697;42.144;24.794;2023-02-28T14:27:05;-19387.41;;;8.83;100.00
5350;BME280;2697;42.144;24.794;2023-02-28T14:32:47;-19390.09;;;8.93;100.00
5350;BME280;2697;42.144;24.794;2023-02-28T14:35:29;-19390.69;;;8.95;100.00
5350;BME280;2697;42.144;24.794;2023-02-28T14:38:04;-19394.00;;;9.06;100.00
5350;BME280;2697;42.144;24.794;2023-02-28T14:40:35;-19393.09;;;9.03;100.00
5350;BME280;2697;42.144;24.794;2023-02-28T14:43:06;-19391.59;;;8.98;100.00
5350;BME280;2697;42.144;24.794;2023-02-28T14:45:35;-19391.00;;;8.96;100.00
5350;BME280;2697;42.144;24.794;2023-02-28T14:48:03;-19390.41;;;8.94;100.00
5350;BME280;2697;42.144;24.794;2023-02-28T14:50:35;-19389.06;;;8.89;100.00
5350;BME280;2697;42.144;24.794;2023-02-28T14:53:01;-19388.91;;;8.89;100.00
5350;BME280;2697;42.144;24.794;2023-02-28T14:55:29;-19387.09;;;8.82;100.00
5350;BME280;2697;42.144;24.794;2023-02-28T14:57:58;-19390.25;;;8.93;100.00
5350;BME280;2697;42.144;24.794;2023-02-28T15:00:29;-19388.91;;;8.89;100.00
5350;BME280;2697;42.144;24.794;2023-02-28T15:02:57;-19388.59;;;8.88;100.00
5350;BME280;2697;42.144;24.794;2023-02-28T15:05:33;-19388.91;;;8.89;100.00
5350;BME280;2697;42.144;24.794;2023-02-28T15:10:37;-19387.09;;;8.82;100.00
5350;BME280;2697;42.144;24.794;2023-02-28T15:13:13;-19387.53;;;8.84;100.00
5350;BME280;2697;42.144;24.794;2023-02-28T15:15:44;-19386.50;;;8.80;100.00
5350;BME280;2697;42.144;24.794;2023-02-28T15:18:23;-19388.59;;;8.88;100.00
5350;BME280;2697;42.144;24.794;2023-02-28T15:20:53;-19384.69;;;8.74;100.00
5350;BME280;2697;42.144;24.794;2023-02-28T15:23:21;-19382.59;;;8.67;100.00
5350;BME280;2697;42.144;24.794;2023-02-28T15:25:47;-19381.69;;;8.64;100.00